sensor_id;sensor_type;location;lat;lon;timestamp;pressure;altitude;pressure_sealevel;temperature
40968;BMP280;57377;45.130;6.038;2022-10-10T00:01:28;92857.97;;;15.27
40968;BMP280;57377;45.130;6.038;2022-10-10T00:03:55;92862.88;;;15.20
40968;BMP280;57377;45.130;6.038;2022-10-10T00:06:21;92858.41;;;15.29
40968;BMP280;57377;45.130;6.038;2022-10-10T00:08:47;92859.03;;;15.26
40968;BMP280;57377;45.130;6.038;2022-10-10T00:11:14;92855.03;;;15.20
40968;BMP280;57377;45.130;6.038;2022-10-10T00:13:40;92855.94;;;15.24
40968;BMP280;57377;45.130;6.038;2022-10-10T00:16:06;92858.25;;;15.17
40968;BMP280;57377;45.130;6.038;2022-10-10T00:18:31;92859.50;;;15.28
40968;BMP280;57377;45.130;6.038;2022-10-10T00:20:57;92858.56;;;15.24
40968;BMP280;57377;45.130;6.038;2022-10-10T00:23:23;92861.97;;;15.33
40968;BMP280;57377;45.130;6.038;2022-10-10T00:25:49;92861.31;;;15.19
40968;BMP280;57377;45.130;6.038;2022-10-10T00:28:15;92855.94;;;15.16
40968;BMP280;57377;45.130;6.038;2022-10-10T00:30:40;92856.69;;;15.16
40968;BMP280;57377;45.130;6.038;2022-10-10T00:33:06;92853.53;;;14.98
40968;BMP280;57377;45.130;6.038;2022-10-10T00:35:31;92854.84;;;14.70
40968;BMP280;57377;45.130;6.038;2022-10-10T00:37:57;92863.97;;;14.81
40968;BMP280;57377;45.130;6.038;2022-10-10T00:40:22;92866.19;;;14.96
40968;BMP280;57377;45.130;6.038;2022-10-10T00:42:48;92868.81;;;15.04
40968;BMP280;57377;45.130;6.038;2022-10-10T00:48:04;92876.22;;;15.02
40968;BMP280;57377;45.130;6.038;2022-10-10T00:50:33;92868.13;;;14.82
40968;BMP280;57377;45.130;6.038;2022-10-10T00:53:00;92861.72;;;14.96
40968;BMP280;57377;45.130;6.038;2022-10-10T00:55:27;92861.53;;;14.93
40968;BMP280;57377;45.130;6.038;2022-10-10T00:57:53;92861.81;;;14.83
40968;BMP280;57377;45.130;6.038;2022-10-10T01:00:18;92861.53;;;14.84
40968;BMP280;57377;45.130;6.038;2022-10-10T01:02:44;92868.44;;;14.80
40968;BMP280;57377;45.130;6.038;2022-10-10T01:05:09;92864.91;;;14.76
40968;BMP280;57377;45.130;6.038;2022-10-10T01:07:35;92864.78;;;14.90
40968;BMP280;57377;45.130;6.038;2022-10-10T01:10:10;92867.66;;;14.80
40968;BMP280;57377;45.130;6.038;2022-10-10T01:24:37;92854.63;;;14.58
40968;BMP280;57377;45.130;6.038;2022-10-10T01:29:29;92859.81;;;14.80
40968;BMP280;57377;45.130;6.038;2022-10-10T01:32:04;92865.78;;;14.72
40968;BMP280;57377;45.130;6.038;2022-10-10T01:34:38;92858.28;;;14.79
40968;BMP280;57377;45.130;6.038;2022-10-10T01:37:38;92860.72;;;14.75
40968;BMP280;57377;45.130;6.038;2022-10-10T01:40:10;92863.72;;;14.61
40968;BMP280;57377;45.130;6.038;2022-10-10T01:42:58;92854.50;;;14.63
40968;BMP280;57377;45.130;6.038;2022-10-10T01:45:26;92853.88;;;14.28
40968;BMP280;57377;45.130;6.038;2022-10-10T01:47:53;92848.91;;;14.48
40968;BMP280;57377;45.130;6.038;2022-10-10T01:50:20;92842.78;;;14.61
40968;BMP280;57377;45.130;6.038;2022-10-10T02:01:04;92855.66;;;14.79
40968;BMP280;57377;45.130;6.038;2022-10-10T02:03:35;92850.94;;;14.59
40968;BMP280;57377;45.130;6.038;2022-10-10T02:06:37;92844.97;;;14.67
40968;BMP280;57377;45.130;6.038;2022-10-10T02:09:12;92854.97;;;14.65
40968;BMP280;57377;45.130;6.038;2022-10-10T02:11:39;92851.28;;;14.66
40968;BMP280;57377;45.130;6.038;2022-10-10T02:14:16;92852.84;;;14.67
40968;BMP280;57377;45.130;6.038;2022-10-10T02:16:45;92849.25;;;14.55
40968;BMP280;57377;45.130;6.038;2022-10-10T02:19:15;92849.81;;;14.52
40968;BMP280;57377;45.130;6.038;2022-10-10T02:21:43;92849.66;;;14.48
40968;BMP280;57377;45.130;6.038;2022-10-10T02:24:10;92849.00;;;13.91
40968;BMP280;57377;45.130;6.038;2022-10-10T02:26:37;92846.56;;;14.38
40968;BMP280;57377;45.130;6.038;2022-10-10T02:29:10;92844.84;;;14.42
40968;BMP280;57377;45.130;6.038;2022-10-10T02:31:55;92832.09;;;14.49
40968;BMP280;57377;45.130;6.038;2022-10-10T02:34:32;92834.38;;;14.42
40968;BMP280;57377;45.130;6.038;2022-10-10T02:37:01;92843.75;;;14.35
40968;BMP280;57377;45.130;6.038;2022-10-10T02:39:30;92837.31;;;14.41
40968;BMP280;57377;45.130;6.038;2022-10-10T02:41:55;92841.69;;;14.53
40968;BMP280;57377;45.130;6.038;2022-10-10T02:44:22;92843.31;;;14.41
40968;BMP280;57377;45.130;6.038;2022-10-10T02:46:48;92840.13;;;14.52
40968;BMP280;57377;45.130;6.038;2022-10-10T02:49:13;92839.34;;;14.43
40968;BMP280;57377;45.130;6.038;2022-10-10T02:51:39;92840.06;;;14.36
40968;BMP280;57377;45.130;6.038;2022-10-10T02:54:05;92845.25;;;14.27
40968;BMP280;57377;45.130;6.038;2022-10-10T02:56:31;92840.22;;;14.39
40968;BMP280;57377;45.130;6.038;2022-10-10T02:58:56;92835.94;;;14.43
40968;BMP280;57377;45.130;6.038;2022-10-10T03:01:22;92838.81;;;14.33
40968;BMP280;57377;45.130;6.038;2022-10-10T03:03:48;92834.44;;;14.50
40968;BMP280;57377;45.130;6.038;2022-10-10T03:06:13;92838.72;;;14.46
40968;BMP280;57377;45.130;6.038;2022-10-10T03:08:38;92840.38;;;14.43
40968;BMP280;57377;45.130;6.038;2022-10-10T03:11:04;92846.88;;;14.15
40968;BMP280;57377;45.130;6.038;2022-10-10T03:13:30;92842.63;;;14.27
40968;BMP280;57377;45.130;6.038;2022-10-10T03:15:55;92836.66;;;14.35
40968;BMP280;57377;45.130;6.038;2022-10-10T03:18:21;92845.22;;;14.19
40968;BMP280;57377;45.130;6.038;2022-10-10T03:20:50;92839.84;;;14.24
40968;BMP280;57377;45.130;6.038;2022-10-10T03:23:16;92837.00;;;13.90
40968;BMP280;57377;45.130;6.038;2022-10-10T03:25:42;92838.16;;;13.98
40968;BMP280;57377;45.130;6.038;2022-10-10T03:28:08;92846.25;;;13.96
40968;BMP280;57377;45.130;6.038;2022-10-10T03:30:35;92833.59;;;13.68
40968;BMP280;57377;45.130;6.038;2022-10-10T03:33:00;92840.88;;;13.93
40968;BMP280;57377;45.130;6.038;2022-10-10T03:35:25;92839.63;;;14.12
40968;BMP280;57377;45.130;6.038;2022-10-10T03:37:51;92841.50;;;14.20
40968;BMP280;57377;45.130;6.038;2022-10-10T03:40:16;92837.63;;;14.39
40968;BMP280;57377;45.130;6.038;2022-10-10T03:42:41;92835.25;;;14.29
40968;BMP280;57377;45.130;6.038;2022-10-10T03:45:07;92844.38;;;14.10
40968;BMP280;57377;45.130;6.038;2022-10-10T03:47:32;92846.66;;;13.90
40968;BMP280;57377;45.130;6.038;2022-10-10T03:49:58;92842.13;;;13.95
40968;BMP280;57377;45.130;6.038;2022-10-10T03:52:23;92853.16;;;13.71
40968;BMP280;57377;45.130;6.038;2022-10-10T03:54:48;92848.63;;;13.98
40968;BMP280;57377;45.130;6.038;2022-10-10T03:57:14;92843.38;;;13.98
40968;BMP280;57377;45.130;6.038;2022-10-10T03:59:39;92843.53;;;14.23
40968;BMP280;57377;45.130;6.038;2022-10-10T04:02:04;92847.00;;;14.10
40968;BMP280;57377;45.130;6.038;2022-10-10T04:04:30;92851.72;;;14.30
40968;BMP280;57377;45.130;6.038;2022-10-10T04:06:55;92847.00;;;14.10
40968;BMP280;57377;45.130;6.038;2022-10-10T04:09:21;92848.88;;;14.18
40968;BMP280;57377;45.130;6.038;2022-10-10T04:11:47;92845.69;;;13.99
40968;BMP280;57377;45.130;6.038;2022-10-10T04:14:12;92841.91;;;14.05
40968;BMP280;57377;45.130;6.038;2022-10-10T04:16:37;92839.03;;;13.93
40968;BMP280;57377;45.130;6.038;2022-10-10T04:19:03;92839.09;;;14.02
40968;BMP280;57377;45.130;6.038;2022-10-10T04:21:28;92839.63;;;14.12
40968;BMP280;57377;45.130;6.038;2022-10-10T04:23:54;92835.81;;;13.96
40968;BMP280;57377;45.130;6.038;2022-10-10T04:26:19;92847.41;;;14.04
40968;BMP280;57377;45.130;6.038;2022-10-10T04:28:44;92841.25;;;14.00
40968;BMP280;57377;45.130;6.038;2022-10-10T04:31:10;92847.03;;;13.97
40968;BMP280;57377;45.130;6.038;2022-10-10T04:33:36;92847.03;;;13.97
40968;BMP280;57377;45.130;6.038;2022-10-10T04:36:03;92851.59;;;14.05
40968;BMP280;57377;45.130;6.038;2022-10-10T04:38:43;92849.75;;;14.05
40968;BMP280;57377;45.130;6.038;2022-10-10T04:42:13;92852.09;;;13.93
40968;BMP280;57377;45.130;6.038;2022-10-10T04:45:30;92850.09;;;14.12
40968;BMP280;57377;45.130;6.038;2022-10-10T04:48:58;92854.72;;;13.93
40968;BMP280;57377;45.130;6.038;2022-10-10T04:52:09;92854.81;;;13.67
40968;BMP280;57377;45.130;6.038;2022-10-10T04:55:20;92850.78;;;13.82
40968;BMP280;57377;45.130;6.038;2022-10-10T05:02:04;92854.38;;;14.08
40968;BMP280;57377;45.130;6.038;2022-10-10T05:05:14;92847.59;;;14.07
40968;BMP280;57377;45.130;6.038;2022-10-10T05:22:08;92864.88;;;13.38
40968;BMP280;57377;45.130;6.038;2022-10-10T05:24:34;92866.69;;;13.51
40968;BMP280;57377;45.130;6.038;2022-10-10T05:26:59;92861.47;;;13.73
40968;BMP280;57377;45.130;6.038;2022-10-10T05:29:25;92863.59;;;13.71
40968;BMP280;57377;45.130;6.038;2022-10-10T05:31:50;92861.47;;;13.73
40968;BMP280;57377;45.130;6.038;2022-10-10T05:34:15;92855.84;;;13.79
40968;BMP280;57377;45.130;6.038;2022-10-10T05:36:41;92860.47;;;13.82
40968;BMP280;57377;45.130;6.038;2022-10-10T05:39:07;92856.50;;;13.84
40968;BMP280;57377;45.130;6.038;2022-10-10T05:41:33;92859.53;;;13.78
40968;BMP280;57377;45.130;6.038;2022-10-10T05:43:58;92863.03;;;13.74
40968;BMP280;57377;45.130;6.038;2022-10-10T05:46:24;92855.25;;;13.82
40968;BMP280;57377;45.130;6.038;2022-10-10T05:48:52;92865.66;;;13.74
40968;BMP280;57377;45.130;6.038;2022-10-10T05:51:18;92863.41;;;13.80
40968;BMP280;57377;45.130;6.038;2022-10-10T05:53:43;92862.44;;;13.77
40968;BMP280;57377;45.130;6.038;2022-10-10T05:56:08;92868.81;;;13.84
40968;BMP280;57377;45.130;6.038;2022-10-10T05:58:36;92871.28;;;13.67
40968;BMP280;57377;45.130;6.038;2022-10-10T06:01:05;92868.13;;;13.57
40968;BMP280;57377;45.130;6.038;2022-10-10T06:03:31;92872.06;;;13.68
40968;BMP280;57377;45.130;6.038;2022-10-10T06:05:57;92873.75;;;13.50
40968;BMP280;57377;45.130;6.038;2022-10-10T06:08:22;92877.44;;;13.49
40968;BMP280;57377;45.130;6.038;2022-10-10T06:10:48;92879.06;;;13.59
40968;BMP280;57377;45.130;6.038;2022-10-10T06:13:15;92879.53;;;13.61
40968;BMP280;57377;45.130;6.038;2022-10-10T06:15:41;92876.94;;;13.82
40968;BMP280;57377;45.130;6.038;2022-10-10T06:18:07;92880.63;;;13.81
40968;BMP280;57377;45.130;6.038;2022-10-10T06:20:37;92868.38;;;13.90
40968;BMP280;57377;45.130;6.038;2022-10-10T06:23:03;92879.09;;;13.80
40968;BMP280;57377;45.130;6.038;2022-10-10T06:25:28;92883.66;;;13.75
40968;BMP280;57377;45.130;6.038;2022-10-10T06:27:54;92883.13;;;13.86
40968;BMP280;57377;45.130;6.038;2022-10-10T06:30:20;92887.03;;;13.76
40968;BMP280;57377;45.130;6.038;2022-10-10T06:32:46;92884.81;;;14.04
40968;BMP280;57377;45.130;6.038;2022-10-10T06:35:11;92898.97;;;14.03
40968;BMP280;57377;45.130;6.038;2022-10-10T06:37:37;92894.63;;;13.99
40968;BMP280;57377;45.130;6.038;2022-10-10T06:40:02;92896.56;;;13.93
40968;BMP280;57377;45.130;6.038;2022-10-10T06:42:31;92902.84;;;13.92
40968;BMP280;57377;45.130;6.038;2022-10-10T06:44:57;92908.88;;;13.93
40968;BMP280;57377;45.130;6.038;2022-10-10T06:47:22;92903.09;;;13.82
40968;BMP280;57377;45.130;6.038;2022-10-10T06:49:48;92911.66;;;13.96
40968;BMP280;57377;45.130;6.038;2022-10-10T06:52:13;92905.75;;;14.04
40968;BMP280;57377;45.130;6.038;2022-10-10T06:54:39;92902.66;;;14.24
40968;BMP280;57377;45.130;6.038;2022-10-10T06:57:04;92913.94;;;14.11
40968;BMP280;57377;45.130;6.038;2022-10-10T06:59:30;92909.91;;;14.05
40968;BMP280;57377;45.130;6.038;2022-10-10T07:01:55;92924.53;;;14.06
40968;BMP280;57377;45.130;6.038;2022-10-10T07:04:20;92919.50;;;13.96
40968;BMP280;57377;45.130;6.038;2022-10-10T07:06:46;92926.88;;;13.94
40968;BMP280;57377;45.130;6.038;2022-10-10T07:09:11;92931.53;;;13.97
40968;BMP280;57377;45.130;6.038;2022-10-10T07:11:37;92935.66;;;14.11
40968;BMP280;57377;45.130;6.038;2022-10-10T07:14:02;92930.00;;;14.40
40968;BMP280;57377;45.130;6.038;2022-10-10T07:16:28;92931.44;;;14.24
40968;BMP280;57377;45.130;6.038;2022-10-10T07:18:53;92938.75;;;14.13
40968;BMP280;57377;45.130;6.038;2022-10-10T07:21:19;92944.09;;;14.09
40968;BMP280;57377;45.130;6.038;2022-10-10T07:23:45;92949.22;;;14.13
40968;BMP280;57377;45.130;6.038;2022-10-10T07:26:12;92945.34;;;14.11
40968;BMP280;57377;45.130;6.038;2022-10-10T07:28:38;92945.91;;;13.86
40968;BMP280;57377;45.130;6.038;2022-10-10T07:31:06;92946.06;;;14.03
40968;BMP280;57377;45.130;6.038;2022-10-10T07:33:38;92955.16;;;14.06
40968;BMP280;57377;45.130;6.038;2022-10-10T07:36:05;92953.38;;;14.14
40968;BMP280;57377;45.130;6.038;2022-10-10T07:38:31;92950.81;;;14.23
40968;BMP280;57377;45.130;6.038;2022-10-10T07:40:56;92947.84;;;14.38
40968;BMP280;57377;45.130;6.038;2022-10-10T07:43:21;92961.28;;;14.23
40968;BMP280;57377;45.130;6.038;2022-10-10T07:45:47;92959.63;;;14.05
40968;BMP280;57377;45.130;6.038;2022-10-10T07:48:12;92960.53;;;14.22
40968;BMP280;57377;45.130;6.038;2022-10-10T07:50:43;92967.13;;;14.20
40968;BMP280;57377;45.130;6.038;2022-10-10T07:53:11;92963.28;;;14.04
40968;BMP280;57377;45.130;6.038;2022-10-10T07:55:38;92959.75;;;14.22
40968;BMP280;57377;45.130;6.038;2022-10-10T07:58:04;92956.13;;;14.31
40968;BMP280;57377;45.130;6.038;2022-10-10T08:00:30;92962.78;;;14.37
40968;BMP280;57377;45.130;6.038;2022-10-10T08:02:55;92972.34;;;14.20
40968;BMP280;57377;45.130;6.038;2022-10-10T08:05:21;92967.97;;;14.29
40968;BMP280;57377;45.130;6.038;2022-10-10T08:07:46;92971.75;;;14.44
40968;BMP280;57377;45.130;6.038;2022-10-10T08:10:12;92975.88;;;14.37
40968;BMP280;57377;45.130;6.038;2022-10-10T08:12:37;93075.09;;;20.19
40968;BMP280;57377;45.130;6.038;2022-10-10T08:15:04;93086.03;;;29.70
40968;BMP280;57377;45.130;6.038;2022-10-10T08:17:30;93060.72;;;34.53
40968;BMP280;57377;45.130;6.038;2022-10-10T08:19:55;93033.00;;;36.98
40968;BMP280;57377;45.130;6.038;2022-10-10T08:22:21;93011.63;;;40.29
40968;BMP280;57377;45.130;6.038;2022-10-10T08:24:46;93001.09;;;39.07
40968;BMP280;57377;45.130;6.038;2022-10-10T08:27:12;92994.25;;;37.19
40968;BMP280;57377;45.130;6.038;2022-10-10T08:29:39;92976.09;;;40.55
40968;BMP280;57377;45.130;6.038;2022-10-10T08:32:04;92963.34;;;43.56
40968;BMP280;57377;45.130;6.038;2022-10-10T08:34:30;92948.88;;;44.00
40968;BMP280;57377;45.130;6.038;2022-10-10T08:36:55;92945.97;;;44.40
40968;BMP280;57377;45.130;6.038;2022-10-10T08:39:20;92960.84;;;39.02
40968;BMP280;57377;45.130;6.038;2022-10-10T08:41:51;92954.00;;;36.47
40968;BMP280;57377;45.130;6.038;2022-10-10T08:44:39;92939.41;;;37.23
40968;BMP280;57377;45.130;6.038;2022-10-10T08:47:12;92928.41;;;33.29
40968;BMP280;57377;45.130;6.038;2022-10-10T08:49:47;92895.00;;;28.26
40968;BMP280;57377;45.130;6.038;2022-10-10T08:52:37;92920.34;;;21.90
40968;BMP280;57377;45.130;6.038;2022-10-10T08:55:27;92927.00;;;20.66
40968;BMP280;57377;45.130;6.038;2022-10-10T09:00:30;92913.16;;;20.18
40968;BMP280;57377;45.130;6.038;2022-10-10T09:02:58;92925.00;;;19.61
40968;BMP280;57377;45.130;6.038;2022-10-10T09:05:43;92918.66;;;21.06
40968;BMP280;57377;45.130;6.038;2022-10-10T09:11:39;92923.31;;;19.10
40968;BMP280;57377;45.130;6.038;2022-10-10T09:14:21;92924.13;;;19.46
40968;BMP280;57377;45.130;6.038;2022-10-10T09:22:11;92929.81;;;19.12
40968;BMP280;57377;45.130;6.038;2022-10-10T09:27:12;92937.94;;;18.43
40968;BMP280;57377;45.130;6.038;2022-10-10T09:29:47;92935.22;;;17.91
40968;BMP280;57377;45.130;6.038;2022-10-10T09:32:49;92942.91;;;16.32
40968;BMP280;57377;45.130;6.038;2022-10-10T09:35:16;92934.69;;;16.58
40968;BMP280;57377;45.130;6.038;2022-10-10T09:37:43;92936.25;;;15.84
40968;BMP280;57377;45.130;6.038;2022-10-10T09:40:25;92930.88;;;16.31
40968;BMP280;57377;45.130;6.038;2022-10-10T09:42:51;92929.28;;;16.63
40968;BMP280;57377;45.130;6.038;2022-10-10T09:45:40;92931.75;;;15.76
40968;BMP280;57377;45.130;6.038;2022-10-10T09:48:04;92931.00;;;15.75
40968;BMP280;57377;45.130;6.038;2022-10-10T09:50:30;92926.50;;;16.51
40968;BMP280;57377;45.130;6.038;2022-10-10T09:52:56;92922.56;;;16.82
40968;BMP280;57377;45.130;6.038;2022-10-10T09:55:29;92923.50;;;16.78
40968;BMP280;57377;45.130;6.038;2022-10-10T09:58:03;92923.50;;;16.86
40968;BMP280;57377;45.130;6.038;2022-10-10T10:00:34;92915.41;;;16.54
40968;BMP280;57377;45.130;6.038;2022-10-10T10:05:28;92920.97;;;16.28
40968;BMP280;57377;45.130;6.038;2022-10-10T10:07:54;92925.41;;;16.61
40968;BMP280;57377;45.130;6.038;2022-10-10T10:10:22;92925.91;;;16.54
40968;BMP280;57377;45.130;6.038;2022-10-10T10:12:49;92925.38;;;16.77
40968;BMP280;57377;45.130;6.038;2022-10-10T10:15:18;92914.78;;;17.02
40968;BMP280;57377;45.130;6.038;2022-10-10T10:17:43;92909.22;;;17.41
40968;BMP280;57377;45.130;6.038;2022-10-10T10:22:52;92909.94;;;17.50
40968;BMP280;57377;45.130;6.038;2022-10-10T10:25:36;92912.28;;;17.71
40968;BMP280;57377;45.130;6.038;2022-10-10T10:30:40;92922.47;;;17.53
40968;BMP280;57377;45.130;6.038;2022-10-10T10:33:13;92904.66;;;17.50
40968;BMP280;57377;45.130;6.038;2022-10-10T10:35:46;92917.09;;;18.50
40968;BMP280;57377;45.130;6.038;2022-10-10T10:38:29;92915.63;;;17.80
40968;BMP280;57377;45.130;6.038;2022-10-10T10:43:56;92915.31;;;18.22
40968;BMP280;57377;45.130;6.038;2022-10-10T10:46:27;92919.00;;;17.61
40968;BMP280;57377;45.130;6.038;2022-10-10T10:49:07;92908.13;;;17.70
40968;BMP280;57377;45.130;6.038;2022-10-10T10:51:57;92910.56;;;17.75
40968;BMP280;57377;45.130;6.038;2022-10-10T10:57:17;92914.69;;;18.05
40968;BMP280;57377;45.130;6.038;2022-10-10T10:59:59;92912.75;;;17.94
40968;BMP280;57377;45.130;6.038;2022-10-10T11:02:40;92901.09;;;18.23
40968;BMP280;57377;45.130;6.038;2022-10-10T11:05:33;92901.50;;;18.45
40968;BMP280;57377;45.130;6.038;2022-10-10T11:11:01;92894.63;;;18.96
40968;BMP280;57377;45.130;6.038;2022-10-10T11:13:54;92892.78;;;19.09
40968;BMP280;57377;45.130;6.038;2022-10-10T11:16:37;92884.41;;;19.66
40968;BMP280;57377;45.130;6.038;2022-10-10T11:22:01;92885.66;;;19.45
40968;BMP280;57377;45.130;6.038;2022-10-10T11:24:53;92888.94;;;19.42
40968;BMP280;57377;45.130;6.038;2022-10-10T11:27:31;92884.28;;;19.98
40968;BMP280;57377;45.130;6.038;2022-10-10T11:32:47;92885.16;;;19.90
40968;BMP280;57377;45.130;6.038;2022-10-10T11:38:55;92870.59;;;21.20
40968;BMP280;57377;45.130;6.038;2022-10-10T11:43:49;92875.09;;;20.46
40968;BMP280;57377;45.130;6.038;2022-10-10T11:48:57;92859.66;;;20.90
40968;BMP280;57377;45.130;6.038;2022-10-10T11:54:26;92860.28;;;21.79
40968;BMP280;57377;45.130;6.038;2022-10-10T11:56:57;92852.94;;;21.88
40968;BMP280;57377;45.130;6.038;2022-10-10T11:59:32;92850.97;;;21.36
40968;BMP280;57377;45.130;6.038;2022-10-10T12:01:59;92850.16;;;20.74
40968;BMP280;57377;45.130;6.038;2022-10-10T12:04:36;92836.97;;;20.90
40968;BMP280;57377;45.130;6.038;2022-10-10T12:07:18;92826.44;;;21.54
40968;BMP280;57377;45.130;6.038;2022-10-10T12:09:51;92817.41;;;22.26
40968;BMP280;57377;45.130;6.038;2022-10-10T12:12:20;92830.53;;;21.86
40968;BMP280;57377;45.130;6.038;2022-10-10T12:14:49;92828.50;;;21.79
40968;BMP280;57377;45.130;6.038;2022-10-10T12:17:31;92813.78;;;22.16
40968;BMP280;57377;45.130;6.038;2022-10-10T12:20:33;92821.13;;;21.88
40968;BMP280;57377;45.130;6.038;2022-10-10T12:23:28;92811.94;;;22.01
40968;BMP280;57377;45.130;6.038;2022-10-10T12:25:54;92800.47;;;22.12
40968;BMP280;57377;45.130;6.038;2022-10-10T12:28:35;92805.81;;;22.53
40968;BMP280;57377;45.130;6.038;2022-10-10T12:44:18;92809.16;;;21.75
40968;BMP280;57377;45.130;6.038;2022-10-10T12:46:44;92808.53;;;22.00
40968;BMP280;57377;45.130;6.038;2022-10-10T12:49:21;92821.50;;;21.53
40968;BMP280;57377;45.130;6.038;2022-10-10T12:51:59;92815.84;;;21.54
40968;BMP280;57377;45.130;6.038;2022-10-10T12:54:32;92814.41;;;21.26
40968;BMP280;57377;45.130;6.038;2022-10-10T12:57:11;92808.41;;;21.59
40968;BMP280;57377;45.130;6.038;2022-10-10T12:59:39;92804.31;;;21.31
40968;BMP280;57377;45.130;6.038;2022-10-10T13:02:11;92802.09;;;21.49
40968;BMP280;57377;45.130;6.038;2022-10-10T13:04:41;92798.69;;;21.33
40968;BMP280;57377;45.130;6.038;2022-10-10T13:07:12;92802.03;;;21.15
40968;BMP280;57377;45.130;6.038;2022-10-10T13:09:38;92792.38;;;21.22
40968;BMP280;57377;45.130;6.038;2022-10-10T13:12:05;92791.13;;;21.16
40968;BMP280;57377;45.130;6.038;2022-10-10T13:14:44;92797.63;;;21.19
40968;BMP280;57377;45.130;6.038;2022-10-10T13:17:28;92794.47;;;21.13
40968;BMP280;57377;45.130;6.038;2022-10-10T13:19:56;92797.16;;;21.32
40968;BMP280;57377;45.130;6.038;2022-10-10T13:22:22;92794.06;;;20.96
40968;BMP280;57377;45.130;6.038;2022-10-10T13:24:48;92793.41;;;21.33
40968;BMP280;57377;45.130;6.038;2022-10-10T13:27:34;92794.00;;;21.26
40968;BMP280;57377;45.130;6.038;2022-10-10T13:30:00;92795.97;;;21.45
40968;BMP280;57377;45.130;6.038;2022-10-10T13:32:31;92792.53;;;21.59
40968;BMP280;57377;45.130;6.038;2022-10-10T13:35:03;92793.66;;;21.58
40968;BMP280;57377;45.130;6.038;2022-10-10T13:37:30;92789.53;;;21.61
40968;BMP280;57377;45.130;6.038;2022-10-10T13:39:56;92796.19;;;21.55
40968;BMP280;57377;45.130;6.038;2022-10-10T13:44:53;92793.00;;;21.16
40968;BMP280;57377;45.130;6.038;2022-10-10T13:50:35;92794.44;;;21.44
40968;BMP280;57377;45.130;6.038;2022-10-10T13:56:28;92780.13;;;20.84
40968;BMP280;57377;45.130;6.038;2022-10-10T13:59:04;92782.44;;;21.16
40968;BMP280;57377;45.130;6.038;2022-10-10T14:01:35;92782.66;;;21.26
40968;BMP280;57377;45.130;6.038;2022-10-10T14:04:23;92777.19;;;21.19
40968;BMP280;57377;45.130;6.038;2022-10-10T14:06:57;92784.59;;;20.80
40968;BMP280;57377;45.130;6.038;2022-10-10T14:09:44;92781.50;;;21.08
40968;BMP280;57377;45.130;6.038;2022-10-10T14:12:18;92779.88;;;21.04
40968;BMP280;57377;45.130;6.038;2022-10-10T14:14:47;92779.94;;;21.07
40968;BMP280;57377;45.130;6.038;2022-10-10T14:17:14;92775.19;;;20.97
40968;BMP280;57377;45.130;6.038;2022-10-10T14:19:41;92767.78;;;20.88
40968;BMP280;57377;45.130;6.038;2022-10-10T14:22:06;92776.41;;;20.85
40968;BMP280;57377;45.130;6.038;2022-10-10T14:24:32;92773.75;;;21.34
40968;BMP280;57377;45.130;6.038;2022-10-10T14:27:24;92783.84;;;21.44
40968;BMP280;57377;45.130;6.038;2022-10-10T14:29:50;92782.84;;;21.18
40968;BMP280;57377;45.130;6.038;2022-10-10T14:32:16;92780.16;;;21.48
40968;BMP280;57377;45.130;6.038;2022-10-10T14:34:41;92784.06;;;20.90
40968;BMP280;57377;45.130;6.038;2022-10-10T14:37:23;92789.09;;;20.94
40968;BMP280;57377;45.130;6.038;2022-10-10T14:39:48;92777.13;;;21.00
40968;BMP280;57377;45.130;6.038;2022-10-10T14:42:15;92780.91;;;20.99
40968;BMP280;57377;45.130;6.038;2022-10-10T14:44:41;92781.03;;;21.22
40968;BMP280;57377;45.130;6.038;2022-10-10T14:47:19;92779.69;;;21.12
40968;BMP280;57377;45.130;6.038;2022-10-10T14:49:44;92782.53;;;20.89
40968;BMP280;57377;45.130;6.038;2022-10-10T14:52:10;92781.75;;;21.03
40968;BMP280;57377;45.130;6.038;2022-10-10T14:54:36;92781.63;;;21.30
40968;BMP280;57377;45.130;6.038;2022-10-10T14:57:01;92795.47;;;20.93
40968;BMP280;57377;45.130;6.038;2022-10-10T14:59:27;92805.69;;;20.49
40968;BMP280;57377;45.130;6.038;2022-10-10T15:01:52;92790.13;;;20.48
40968;BMP280;57377;45.130;6.038;2022-10-10T15:04:17;92793.34;;;20.84
40968;BMP280;57377;45.130;6.038;2022-10-10T15:06:43;92793.03;;;20.85
40968;BMP280;57377;45.130;6.038;2022-10-10T15:09:10;92792.16;;;20.81
40968;BMP280;57377;45.130;6.038;2022-10-10T15:11:36;92804.03;;;21.02
40968;BMP280;57377;45.130;6.038;2022-10-10T15:14:01;92790.00;;;20.56
40968;BMP280;57377;45.130;6.038;2022-10-10T15:16:26;92797.38;;;20.78
40968;BMP280;57377;45.130;6.038;2022-10-10T15:18:52;92800.28;;;20.73
40968;BMP280;57377;45.130;6.038;2022-10-10T15:21:17;92810.09;;;20.45
40968;BMP280;57377;45.130;6.038;2022-10-10T15:23:42;92814.00;;;20.09
40968;BMP280;57377;45.130;6.038;2022-10-10T15:26:07;92809.44;;;19.94
40968;BMP280;57377;45.130;6.038;2022-10-10T15:28:33;92815.88;;;19.81
40968;BMP280;57377;45.130;6.038;2022-10-10T15:30:59;92810.88;;;20.19
40968;BMP280;57377;45.130;6.038;2022-10-10T15:33:25;92813.66;;;20.37
40968;BMP280;57377;45.130;6.038;2022-10-10T15:35:57;92820.72;;;19.79
40968;BMP280;57377;45.130;6.038;2022-10-10T15:38:23;92818.22;;;20.10
40968;BMP280;57377;45.130;6.038;2022-10-10T15:40:59;92820.81;;;20.22
40968;BMP280;57377;45.130;6.038;2022-10-10T15:43:26;92824.56;;;20.36
40968;BMP280;57377;45.130;6.038;2022-10-10T15:45:52;92813.91;;;20.32
40968;BMP280;57377;45.130;6.038;2022-10-10T15:48:18;92821.47;;;20.19
40968;BMP280;57377;45.130;6.038;2022-10-10T15:50:44;92827.34;;;19.61
40968;BMP280;57377;45.130;6.038;2022-10-10T15:53:09;92825.09;;;19.87
40968;BMP280;57377;45.130;6.038;2022-10-10T15:55:41;92821.53;;;19.95
40968;BMP280;57377;45.130;6.038;2022-10-10T15:58:06;92833.41;;;20.01
40968;BMP280;57377;45.130;6.038;2022-10-10T16:00:31;92830.09;;;20.04
40968;BMP280;57377;45.130;6.038;2022-10-10T16:02:57;92832.34;;;19.90
40968;BMP280;57377;45.130;6.038;2022-10-10T16:05:22;92835.84;;;19.94
40968;BMP280;57377;45.130;6.038;2022-10-10T16:07:50;92835.88;;;19.70
40968;BMP280;57377;45.130;6.038;2022-10-10T16:10:16;92843.28;;;19.77
40968;BMP280;57377;45.130;6.038;2022-10-10T16:12:41;92843.81;;;19.82
40968;BMP280;57377;45.130;6.038;2022-10-10T16:15:07;92850.53;;;19.80
40968;BMP280;57377;45.130;6.038;2022-10-10T16:17:33;92846.13;;;19.84
40968;BMP280;57377;45.130;6.038;2022-10-10T16:19:58;92855.19;;;19.59